createdAt,value
2017-12-20T00:00:06.402Z,19.87
2017-12-20T00:02:35.202Z,17.87
2017-12-20T00:05:04.265Z,19.00
2017-12-20T00:07:32.567Z,17.30
2017-12-20T00:10:00.869Z,21.40
2017-12-20T00:12:29.173Z,18.10
2017-12-20T00:14:57.444Z,21.13
2017-12-20T00:17:26.020Z,17.00
2017-12-20T00:19:54.291Z,21.67
2017-12-20T00:22:22.560Z,19.33
2017-12-20T00:24:50.857Z,19.23
2017-12-20T00:27:19.143Z,20.33
2017-12-20T00:29:54.673Z,17.17
2017-12-20T00:32:22.954Z,20.37
2017-12-20T00:34:50.972Z,19.97
2017-12-20T00:37:19.026Z,20.97
2017-12-20T00:39:47.078Z,17.23
2017-12-20T00:42:15.369Z,22.77
2017-12-20T00:44:44.414Z,18.83
2017-12-20T00:47:13.021Z,18.37
2017-12-20T00:49:41.299Z,13.53
2017-12-20T00:52:09.566Z,14.10
2017-12-20T00:54:37.859Z,20.30
2017-12-20T00:57:06.125Z,17.17
2017-12-20T00:59:34.433Z,17.37
2017-12-20T01:02:02.718Z,18.63
2017-12-20T01:04:32.099Z,16.33
2017-12-20T01:07:00.358Z,19.13
2017-12-20T01:09:28.649Z,19.70
2017-12-20T01:11:56.976Z,18.70
2017-12-20T01:14:25.262Z,15.33
2017-12-20T01:16:53.597Z,16.30
2017-12-20T01:19:21.852Z,20.03
2017-12-20T01:21:50.456Z,18.17
2017-12-20T01:24:18.732Z,19.03
2017-12-20T01:26:47.006Z,18.03
2017-12-20T01:29:15.277Z,19.57
2017-12-20T01:31:43.561Z,17.80
2017-12-20T01:34:11.846Z,20.97
2017-12-20T01:36:40.142Z,18.07
2017-12-20T01:39:09.503Z,24.50
2017-12-20T01:41:37.776Z,20.90
2017-12-20T01:44:06.917Z,19.00
2017-12-20T01:46:35.196Z,25.43
2017-12-20T01:49:04.289Z,19.60
2017-12-20T01:51:33.380Z,16.40
2017-12-20T01:54:01.646Z,17.03
2017-12-20T01:56:29.947Z,16.60
2017-12-20T01:58:58.226Z,18.57
2017-12-20T02:01:27.596Z,15.70
2017-12-20T02:03:55.861Z,20.50
2017-12-20T02:06:24.136Z,17.73
2017-12-20T02:08:52.426Z,19.90
2017-12-20T02:11:20.705Z,20.17
2017-12-20T02:13:49.013Z,16.80
2017-12-20T02:16:18.044Z,22.40
2017-12-20T02:18:46.648Z,17.90
2017-12-20T02:21:14.908Z,17.73
2017-12-20T02:23:43.263Z,20.53
2017-12-20T02:26:12.308Z,18.57
2017-12-20T02:28:40.582Z,20.43
2017-12-20T02:31:08.891Z,19.37
2017-12-20T02:33:37.166Z,15.20
2017-12-20T02:36:05.476Z,18.60
2017-12-20T02:38:39.525Z,21.07
2017-12-20T02:41:08.625Z,18.50
2017-12-20T02:43:36.896Z,18.00
2017-12-20T02:46:05.171Z,17.33
2017-12-20T02:48:33.506Z,19.63
2017-12-20T02:51:01.807Z,24.30
2017-12-20T02:53:30.095Z,22.17
2017-12-20T02:55:58.497Z,21.37
2017-12-20T02:58:26.803Z,25.90
2017-12-20T03:00:55.078Z,19.73
2017-12-20T03:03:23.378Z,18.00
2017-12-20T03:05:52.430Z,22.67
2017-12-20T03:08:20.714Z,18.40
2017-12-20T03:10:49.012Z,20.60
2017-12-20T03:13:17.283Z,20.73
2017-12-20T03:15:45.868Z,21.07
2017-12-20T03:18:14.137Z,27.70
2017-12-20T03:20:42.426Z,19.00
2017-12-20T03:23:14.349Z,25.13
2017-12-20T03:25:43.391Z,27.87
2017-12-20T03:28:11.696Z,29.00
2017-12-20T03:30:40.050Z,20.97
2017-12-20T03:33:08.713Z,21.27
2017-12-20T03:35:36.992Z,26.70
2017-12-20T03:38:05.275Z,16.77
2017-12-20T03:40:33.565Z,23.97
2017-12-20T03:43:01.839Z,15.97
2017-12-20T03:45:30.137Z,13.50
2017-12-20T03:47:59.190Z,21.17
2017-12-20T03:50:27.756Z,18.87
2017-12-20T03:52:56.091Z,24.17
2017-12-20T03:55:25.146Z,20.57
2017-12-20T03:57:53.454Z,18.67
2017-12-20T04:00:21.748Z,22.33
2017-12-20T04:02:50.836Z,22.17
2017-12-20T04:05:19.883Z,21.87
2017-12-20T04:07:48.485Z,38.33
2017-12-20T04:10:16.757Z,20.53
2017-12-20T04:12:45.030Z,29.90
2017-12-20T04:15:13.337Z,39.43
2017-12-20T04:17:41.622Z,27.63
2017-12-20T04:20:10.708Z,34.43
2017-12-20T04:22:39.052Z,28.97
2017-12-20T04:25:07.415Z,33.10
2017-12-20T04:27:35.686Z,26.57
2017-12-20T04:30:04.372Z,25.10
2017-12-20T04:32:32.646Z,28.33
2017-12-20T04:35:00.957Z,26.60
2017-12-20T04:37:29.256Z,17.73
2017-12-20T04:39:57.530Z,16.30
2017-12-20T04:42:25.816Z,12.97
2017-12-20T04:44:54.093Z,14.23
2017-12-20T04:47:22.394Z,23.73
2017-12-20T04:49:51.460Z,35.33
2017-12-20T04:52:20.081Z,114.90
2017-12-20T04:54:49.140Z,246.67
2017-12-20T04:57:17.476Z,42.70
2017-12-20T04:59:45.783Z,24.23
2017-12-20T05:02:14.060Z,29.20
2017-12-20T05:04:42.672Z,16.20
2017-12-20T05:07:10.922Z,19.63
2017-12-20T05:09:39.606Z,18.60
2017-12-20T05:12:07.883Z,24.00
2017-12-20T05:14:36.158Z,18.57
2017-12-20T05:17:04.450Z,18.27
2017-12-20T05:19:32.719Z,20.87
2017-12-20T05:22:01.023Z,20.17
2017-12-20T05:24:29.292Z,27.47
2017-12-20T05:26:57.616Z,18.83
2017-12-20T05:29:26.642Z,16.40
2017-12-20T05:31:55.246Z,22.50
2017-12-20T05:34:23.504Z,18.50
2017-12-20T05:36:52.796Z,18.57
2017-12-20T05:39:21.961Z,18.43
2017-12-20T05:41:51.033Z,18.33
2017-12-20T05:44:19.333Z,16.20
2017-12-20T05:46:48.366Z,19.77
2017-12-20T05:49:16.674Z,19.33
2017-12-20T05:51:44.952Z,22.63
2017-12-20T05:54:13.530Z,27.47
2017-12-20T05:56:41.806Z,32.10
2017-12-20T05:59:10.080Z,20.90
2017-12-20T06:01:39.144Z,20.37
2017-12-20T06:04:07.429Z,18.67
2017-12-20T06:06:35.733Z,18.07
2017-12-20T06:09:04.004Z,17.20
2017-12-20T06:11:32.632Z,19.07
2017-12-20T06:14:02.584Z,16.60
2017-12-20T06:16:30.854Z,17.07
2017-12-20T06:18:59.160Z,16.37
2017-12-20T06:21:27.456Z,17.73
2017-12-20T06:23:55.760Z,15.93
2017-12-20T06:26:28.465Z,19.27
2017-12-20T06:28:57.046Z,14.40
2017-12-20T06:31:25.338Z,21.03
2017-12-20T06:33:54.657Z,15.07
2017-12-20T06:36:22.914Z,17.47
2017-12-20T06:38:51.216Z,19.87
2017-12-20T06:41:19.588Z,20.27
2017-12-20T06:43:47.849Z,32.87
2017-12-20T06:46:16.149Z,19.00
2017-12-20T06:48:44.458Z,19.10
2017-12-20T06:51:12.782Z,16.77
2017-12-20T06:53:41.088Z,19.83
2017-12-20T06:56:10.405Z,1.83
2017-12-20T06:58:39.426Z,0.80
2017-12-20T07:01:08.453Z,1.03
2017-12-20T07:03:36.782Z,0.70
2017-12-20T07:06:05.046Z,3.00
2017-12-20T07:08:33.342Z,0.67
2017-12-20T07:11:01.603Z,0.70
2017-12-20T07:13:30.194Z,0.97
2017-12-20T07:15:58.498Z,1.63
2017-12-20T07:18:27.556Z,1.17
2017-12-20T07:20:55.859Z,0.60
2017-12-20T07:23:24.135Z,0.80
2017-12-20T07:25:52.410Z,0.90
2017-12-20T07:28:20.688Z,0.70
2017-12-20T07:30:48.997Z,0.63
2017-12-20T07:33:18.008Z,0.60
2017-12-20T07:35:46.632Z,0.60
2017-12-20T07:38:14.889Z,2.87
2017-12-20T07:40:43.149Z,1.30
2017-12-20T07:43:11.443Z,0.60
2017-12-20T07:45:39.705Z,1.93
2017-12-20T07:48:08.012Z,1.83
2017-12-20T07:50:36.280Z,1.47
2017-12-20T07:53:05.195Z,0.70
2017-12-20T07:55:33.415Z,0.70
2017-12-20T07:58:01.977Z,0.70
2017-12-20T08:00:30.261Z,3.37
2017-12-20T08:02:59.337Z,1.37
2017-12-20T08:05:27.603Z,2.40
2017-12-20T08:07:55.863Z,0.80
2017-12-20T08:10:24.226Z,3.83
2017-12-20T08:12:52.517Z,0.97
2017-12-20T08:15:20.772Z,0.70
2017-12-20T08:17:49.069Z,0.60
2017-12-20T08:20:17.340Z,4.57
2017-12-20T08:22:45.621Z,1.30
2017-12-20T08:25:13.905Z,8.43
2017-12-20T08:27:42.214Z,0.80
2017-12-20T08:30:10.502Z,0.80
2017-12-20T08:32:39.092Z,0.80
2017-12-20T08:35:07.357Z,2.03
2017-12-20T08:37:35.634Z,0.70
2017-12-20T08:40:04.012Z,1.33
2017-12-20T08:42:33.036Z,3.80
2017-12-20T08:45:02.094Z,1.90
2017-12-20T08:47:30.353Z,1.67
2017-12-20T08:49:58.658Z,0.70
2017-12-20T08:52:26.932Z,2.00
2017-12-20T08:54:55.481Z,1.73
2017-12-20T08:57:23.745Z,0.83
2017-12-20T08:59:52.078Z,0.80
2017-12-20T09:02:20.343Z,0.97
2017-12-20T09:04:48.605Z,1.20
2017-12-20T09:07:16.913Z,0.80
2017-12-20T09:09:45.189Z,3.27
2017-12-20T09:12:13.790Z,1.10
2017-12-20T09:14:42.858Z,16.00
2017-12-20T09:17:11.121Z,13.03
2017-12-20T09:19:43.084Z,16.57
2017-12-20T09:22:11.349Z,18.70
2017-12-20T09:24:39.665Z,12.03
2017-12-20T09:27:07.942Z,16.70
2017-12-20T09:29:36.487Z,11.30
2017-12-20T09:32:04.757Z,14.40
2017-12-20T09:34:33.026Z,15.70
2017-12-20T09:37:01.329Z,13.07
2017-12-20T09:39:29.602Z,18.73
2017-12-20T09:41:57.912Z,14.50
2017-12-20T09:44:26.182Z,17.80
2017-12-20T09:46:54.493Z,16.07
2017-12-20T09:49:23.541Z,17.13
2017-12-20T09:51:52.185Z,21.23
2017-12-20T09:54:20.466Z,18.17
2017-12-20T09:56:48.737Z,19.90
2017-12-20T09:59:17.796Z,18.53
2017-12-20T10:01:46.067Z,16.80
2017-12-20T10:04:14.371Z,19.80
2017-12-20T10:06:43.411Z,16.23
2017-12-20T10:09:11.965Z,16.50
2017-12-20T10:11:41.006Z,15.97
2017-12-20T10:14:09.260Z,16.83
2017-12-20T10:16:37.573Z,18.00
2017-12-20T10:19:05.852Z,16.07
2017-12-20T10:21:34.149Z,13.80
2017-12-20T10:24:02.425Z,20.43
2017-12-20T10:26:30.982Z,13.13
2017-12-20T10:28:59.259Z,17.17
2017-12-20T10:31:27.564Z,18.33
2017-12-20T10:33:55.862Z,22.23
2017-12-20T10:36:24.371Z,18.37
2017-12-20T10:38:53.438Z,14.43
2017-12-20T10:41:22.493Z,19.17
2017-12-20T10:43:50.806Z,16.20
2017-12-20T10:46:19.852Z,16.60
2017-12-20T10:48:48.412Z,21.87
2017-12-20T10:51:16.681Z,17.60
2017-12-20T10:53:44.956Z,18.90
2017-12-20T10:56:13.266Z,17.80
2017-12-20T10:58:41.535Z,16.67
2017-12-20T11:01:10.208Z,24.00
2017-12-20T11:03:39.233Z,18.37
2017-12-20T11:06:07.500Z,23.47
2017-12-20T11:08:35.941Z,18.90
2017-12-20T11:11:04.201Z,26.37
2017-12-20T11:13:32.518Z,23.87
2017-12-20T11:16:00.797Z,23.33
2017-12-20T11:18:29.093Z,21.93
2017-12-20T11:20:57.405Z,23.10
2017-12-20T11:23:25.682Z,19.70
2017-12-20T11:25:53.989Z,21.70
2017-12-20T11:28:23.052Z,19.50
2017-12-20T11:30:51.352Z,18.03
2017-12-20T11:33:20.399Z,21.57
2017-12-20T11:35:49.005Z,20.40
2017-12-20T11:38:17.281Z,16.63
2017-12-20T11:40:45.558Z,20.73
2017-12-20T11:43:13.854Z,25.57
2017-12-20T11:45:42.198Z,16.47
2017-12-20T11:48:10.485Z,30.30
2017-12-20T11:50:38.769Z,21.33
2017-12-20T11:53:07.325Z,19.73
2017-12-20T11:55:35.611Z,19.10
2017-12-20T11:58:03.884Z,15.60
2017-12-20T12:00:32.180Z,17.90
2017-12-20T12:03:00.461Z,16.77
2017-12-20T12:05:28.763Z,16.43
2017-12-20T12:07:57.029Z,16.80
2017-12-20T12:10:25.520Z,17.67
2017-12-20T12:12:53.792Z,17.53
2017-12-20T12:15:22.073Z,21.00
2017-12-20T12:17:50.379Z,16.10
2017-12-20T12:20:19.418Z,18.80
2017-12-20T12:22:47.716Z,25.13
2017-12-20T12:25:16.009Z,18.60
2017-12-20T12:27:45.057Z,21.13
2017-12-20T12:30:13.371Z,19.27
2017-12-20T12:32:41.658Z,19.73
2017-12-20T12:35:09.970Z,18.90
2017-12-20T12:37:38.286Z,18.90
2017-12-20T12:40:06.584Z,18.80
2017-12-20T12:42:34.858Z,20.00
2017-12-20T12:45:04.214Z,17.60
2017-12-20T12:47:32.502Z,24.20
2017-12-20T12:50:00.804Z,21.37
2017-12-20T12:52:29.089Z,24.33
2017-12-20T12:54:57.394Z,22.30
2017-12-20T12:57:25.712Z,20.57
2017-12-20T12:59:54.055Z,22.80
2017-12-20T13:02:23.390Z,21.87
2017-12-20T13:04:51.671Z,25.70
2017-12-20T13:07:19.946Z,24.90
2017-12-20T13:09:48.358Z,20.30
2017-12-20T13:12:16.967Z,26.17
2017-12-20T13:14:45.692Z,24.67
2017-12-20T13:17:13.973Z,23.90
2017-12-20T13:19:42.250Z,24.10
2017-12-20T13:22:16.567Z,22.20
2017-12-20T13:24:44.825Z,20.60
2017-12-20T13:27:13.126Z,21.30
2017-12-20T13:29:41.417Z,22.90
2017-12-20T13:32:11.303Z,24.57
2017-12-20T13:34:40.358Z,25.20
2017-12-20T13:37:08.771Z,24.80
2017-12-20T13:39:52.787Z,21.33
2017-12-20T13:42:21.061Z,24.80
2017-12-20T13:44:53.292Z,22.27
2017-12-20T13:47:21.677Z,23.63
2017-12-20T13:49:50.700Z,23.60
2017-12-20T13:52:18.986Z,21.23
2017-12-20T13:54:47.606Z,25.07
2017-12-20T13:57:16.662Z,21.93
2017-12-20T13:59:44.965Z,20.00
2017-12-20T14:02:13.258Z,20.67
2017-12-20T14:04:42.300Z,19.77
2017-12-20T14:07:10.627Z,26.07
2017-12-20T14:09:39.757Z,23.43
2017-12-20T14:12:08.507Z,22.77
2017-12-20T14:14:36.830Z,23.63
2017-12-20T14:17:05.972Z,22.33
2017-12-20T14:19:35.069Z,21.90
2017-12-20T14:22:03.365Z,20.70
2017-12-20T14:24:32.881Z,20.90
2017-12-20T14:27:01.929Z,19.90
2017-12-20T14:29:30.222Z,24.47
2017-12-20T14:31:58.514Z,20.60
2017-12-20T14:34:26.842Z,25.80
2017-12-20T14:36:55.151Z,24.83
2017-12-20T14:39:24.459Z,20.97
2017-12-20T14:41:53.352Z,19.37
2017-12-20T14:44:21.821Z,26.43
2017-12-20T14:46:50.098Z,25.67
2017-12-20T14:49:18.441Z,19.87
2017-12-20T14:51:46.718Z,23.93
2017-12-20T14:54:15.033Z,20.20
2017-12-20T14:56:43.314Z,22.37
2017-12-20T14:59:11.649Z,20.03
2017-12-20T15:01:39.930Z,18.27
2017-12-20T15:04:08.221Z,21.63
2017-12-20T15:06:36.516Z,20.60
2017-12-20T15:09:04.791Z,21.73
2017-12-20T15:11:33.183Z,18.70
2017-12-20T15:14:01.445Z,19.73
2017-12-20T15:16:30.008Z,17.70
2017-12-20T15:18:58.300Z,20.30
2017-12-20T15:21:26.575Z,22.07
2017-12-20T15:23:54.898Z,25.20
2017-12-20T15:26:23.207Z,19.20
2017-12-20T15:28:51.618Z,23.90
2017-12-20T15:31:19.865Z,22.17
2017-12-20T15:33:48.179Z,26.73
2017-12-20T15:36:16.501Z,25.37
2017-12-20T15:38:45.895Z,27.20
2017-12-20T15:41:14.270Z,24.03
2017-12-20T15:43:42.595Z,23.23
2017-12-20T15:46:11.120Z,24.60
2017-12-20T15:48:40.466Z,22.13
2017-12-20T15:51:08.786Z,27.43
2017-12-20T15:53:37.272Z,21.60
2017-12-20T15:56:05.867Z,31.10
2017-12-20T15:58:37.011Z,28.40
2017-12-20T16:01:07.079Z,32.23
2017-12-20T16:03:37.887Z,24.63
2017-12-20T16:06:06.686Z,22.73
2017-12-20T16:08:35.089Z,21.00
2017-12-20T16:11:03.536Z,26.47
2017-12-20T16:13:31.840Z,25.83
2017-12-20T16:16:00.907Z,24.27
2017-12-20T16:18:29.263Z,30.63
2017-12-20T16:20:58.288Z,36.57
2017-12-20T16:23:26.873Z,30.93
2017-12-20T16:25:55.247Z,38.40
2017-12-20T16:28:23.510Z,63.57
2017-12-20T16:30:51.817Z,145.57
2017-12-20T16:33:20.868Z,60.87
2017-12-20T16:35:49.188Z,40.13
2017-12-20T16:38:17.499Z,33.50
2017-12-20T16:40:45.819Z,22.43
2017-12-20T16:43:14.090Z,27.93
2017-12-20T16:45:43.626Z,30.40
2017-12-20T16:48:11.938Z,29.67
2017-12-20T16:50:41.029Z,21.47
2017-12-20T16:53:10.346Z,24.23
2017-12-20T16:55:38.641Z,23.50
2017-12-20T16:58:09.145Z,26.73
2017-12-20T17:00:38.429Z,28.43
2017-12-20T17:03:07.557Z,29.23
2017-12-20T17:08:32.922Z,28.00
2017-12-20T17:11:01.782Z,28.53
2017-12-20T17:13:30.171Z,30.07
2017-12-20T17:15:58.476Z,22.30
2017-12-20T17:18:27.127Z,24.20
2017-12-20T17:20:55.438Z,26.67
2017-12-20T17:23:23.752Z,24.10
2017-12-20T17:25:52.834Z,26.97
2017-12-20T17:28:26.290Z,40.30
2017-12-20T17:30:55.832Z,32.77
2017-12-20T17:33:24.243Z,27.83
2017-12-20T17:35:53.305Z,33.20
2017-12-20T17:38:21.598Z,31.63
2017-12-20T17:40:50.693Z,32.70
2017-12-20T17:43:18.998Z,29.10
2017-12-20T17:45:47.313Z,31.23
2017-12-20T17:48:16.033Z,34.47
2017-12-20T17:50:44.316Z,25.77
2017-12-20T17:53:12.637Z,29.57
2017-12-20T17:55:40.960Z,3.40
2017-12-20T17:58:09.247Z,2.43
2017-12-20T18:00:37.571Z,1.27
2017-12-20T18:03:05.828Z,5.10
2017-12-20T18:05:34.380Z,2.30
2017-12-20T18:08:02.625Z,0.70
2017-12-20T18:10:30.897Z,0.90
2017-12-20T18:12:59.857Z,0.60
2017-12-20T18:15:29.202Z,1.40
2017-12-20T18:17:57.469Z,0.70
2017-12-20T18:20:25.749Z,2.30
2017-12-20T18:22:54.295Z,0.60
2017-12-20T18:25:25.237Z,0.60
2017-12-20T18:27:54.611Z,1.80
2017-12-20T18:30:22.869Z,0.60
2017-12-20T18:32:51.141Z,1.03
2017-12-20T18:35:19.459Z,0.80
2017-12-20T18:37:47.747Z,2.30
2017-12-20T18:40:16.816Z,1.83
2017-12-20T18:42:45.092Z,0.80
2017-12-20T18:45:13.685Z,0.70
2017-12-20T18:47:41.976Z,1.23
2017-12-20T18:50:10.243Z,1.77
2017-12-20T18:52:38.557Z,0.70
2017-12-20T18:55:06.851Z,1.80
2017-12-20T18:57:35.183Z,0.97
2017-12-20T19:00:03.676Z,1.10
2017-12-20T19:02:31.974Z,0.80
2017-12-20T19:05:00.285Z,1.47
2017-12-20T19:07:28.903Z,0.80
2017-12-20T19:09:57.868Z,2.10
2017-12-20T19:12:27.080Z,2.27
2017-12-20T19:14:55.438Z,2.30
2017-12-20T19:17:23.705Z,1.43
2017-12-20T19:19:52.048Z,0.77
2017-12-20T19:22:20.368Z,6.63
2017-12-20T19:24:48.981Z,0.80
2017-12-20T19:27:17.279Z,8.03
2017-12-20T19:29:45.543Z,1.20
2017-12-20T19:32:13.860Z,1.73
2017-12-20T19:34:42.144Z,0.70
2017-12-20T19:37:10.451Z,9.23
2017-12-20T19:39:38.767Z,1.27
2017-12-20T19:42:07.362Z,4.10
2017-12-20T19:44:36.389Z,0.80
2017-12-20T19:47:04.661Z,1.23
2017-12-20T19:49:32.976Z,0.83
2017-12-20T19:52:01.264Z,0.70
2017-12-20T19:54:29.574Z,0.70
2017-12-20T19:56:58.704Z,6.23
2017-12-20T19:59:27.421Z,0.70
2017-12-20T20:01:57.151Z,2.80
2017-12-20T20:04:25.587Z,1.10
2017-12-20T20:06:54.419Z,3.57
2017-12-20T20:09:23.382Z,1.27
2017-12-20T20:11:56.763Z,1.90
2017-12-20T20:14:26.906Z,0.70
2017-12-20T20:16:56.102Z,2.40
2017-12-20T20:19:25.462Z,0.73
2017-12-20T20:21:54.582Z,0.60
2017-12-20T20:24:24.407Z,0.70
2017-12-20T20:26:55.423Z,5.70
2017-12-20T20:29:24.193Z,0.60
2017-12-20T20:31:52.801Z,1.57
2017-12-20T20:34:21.836Z,8.40
2017-12-20T20:36:57.054Z,4.30
2017-12-20T20:39:27.571Z,0.60
2017-12-20T20:41:58.234Z,3.70
2017-12-20T20:44:27.383Z,0.70
2017-12-20T20:46:56.939Z,1.97
2017-12-20T20:49:29.762Z,2.33
2017-12-20T20:52:03.816Z,25.73
2017-12-20T20:54:32.775Z,29.47
2017-12-20T20:57:03.559Z,29.50
2017-12-20T20:59:33.928Z,20.50
2017-12-20T21:02:02.753Z,25.97
2017-12-20T21:04:31.846Z,25.57
2017-12-20T21:07:01.332Z,31.33
2017-12-20T21:09:30.111Z,30.60
2017-12-20T21:12:01.198Z,24.67
2017-12-20T21:14:36.082Z,32.70
2017-12-20T21:17:04.962Z,25.83
2017-12-20T21:19:34.862Z,30.40
2017-12-20T21:22:04.932Z,32.40
2017-12-20T21:24:35.589Z,28.03
2017-12-20T21:27:13.672Z,26.87
2017-12-20T21:29:43.130Z,31.27
2017-12-20T21:32:12.107Z,32.10
2017-12-20T21:34:41.909Z,20.63
2017-12-20T21:37:11.117Z,31.67
2017-12-20T21:39:40.396Z,25.33
2017-12-20T21:42:09.259Z,24.30
2017-12-20T21:44:41.835Z,27.47
2017-12-20T21:47:12.566Z,34.00
2017-12-20T21:49:41.470Z,26.00
2017-12-20T21:52:10.642Z,26.13
2017-12-20T21:54:39.273Z,32.43
2017-12-20T21:57:08.203Z,25.03
2017-12-20T21:59:37.697Z,28.60
2017-12-20T22:02:09.194Z,33.67
2017-12-20T22:04:37.811Z,29.30
2017-12-20T22:07:06.609Z,29.33
2017-12-20T22:09:35.355Z,24.77
2017-12-20T22:12:11.630Z,27.20
2017-12-20T22:14:41.675Z,26.13
2017-12-20T22:17:11.490Z,30.43
2017-12-20T22:19:40.624Z,23.33
2017-12-20T22:22:10.224Z,23.20
2017-12-20T22:24:38.996Z,26.37
2017-12-20T22:27:08.318Z,32.17
2017-12-20T22:29:39.089Z,31.80
2017-12-20T22:32:09.656Z,22.67
2017-12-20T22:34:38.377Z,30.87
2017-12-20T22:37:07.980Z,30.00
2017-12-20T22:39:36.824Z,25.67
2017-12-20T22:42:05.780Z,22.80
2017-12-20T22:44:35.324Z,30.03
2017-12-20T22:47:04.222Z,33.47
2017-12-20T22:49:33.055Z,23.13
2017-12-20T22:52:01.673Z,28.63
2017-12-20T22:54:30.429Z,40.33
2017-12-20T22:56:59.996Z,25.83
2017-12-20T22:59:29.029Z,24.23
2017-12-20T23:01:58.591Z,28.97
2017-12-20T23:04:27.170Z,22.00
2017-12-20T23:06:55.829Z,27.07
2017-12-20T23:09:24.236Z,25.53
2017-12-20T23:11:52.666Z,26.20
2017-12-20T23:14:22.259Z,26.13
2017-12-20T23:16:55.224Z,20.90
2017-12-20T23:19:24.029Z,25.07
2017-12-20T23:21:52.673Z,26.17
2017-12-20T23:24:21.260Z,20.47
2017-12-20T23:26:49.938Z,23.10
2017-12-20T23:29:19.451Z,26.30
2017-12-20T23:31:49.230Z,26.30
2017-12-20T23:34:18.613Z,20.93
2017-12-20T23:36:47.405Z,30.00
2017-12-20T23:39:16.386Z,26.70
2017-12-20T23:41:45.126Z,33.70
2017-12-20T23:44:13.659Z,26.57
2017-12-20T23:46:46.654Z,26.90
2017-12-20T23:49:15.007Z,25.40
2017-12-20T23:51:43.308Z,23.47
2017-12-20T23:54:11.648Z,31.20
2017-12-20T23:56:39.948Z,27.00
2017-12-20T23:59:08.248Z,20.90
